Plattsys  
          Plattsys Timing Results Board     Plattsys Timing Results Board
 
 
 
 

 
 




Top Male: 1. Wes Melnik 2. Jeffrey Townsend 3. Randy Neish 4. Alec Corazzini 5. David Radcliffe
Top Female: 1. Debra Houle 2. Baily Thayer 3. Samantha Drop 4. Julia Tassmer 5. Samantha Houle
Platt Systems Official Reporting System
2011 Washington Trail 10K/4K Road Race Results Posted to www.plattsys.com
Coginchaug HS - Durham, CT || Platt Systems 860-645-1476 || 78 degrees || Humid

********************************************
4K BIB-TAG TIMING & RESULTS
********************************************

PLC Name A/S DIV CITY TIME PACE PLC/TOT BIB
1 Wes Melnik 23M M1929 Durham CT 13:17 5:20 1/4 759
2 Jeffrey Townsend 39M M3039 Woodbridge CT 13:18 5:20 1/15 957
3 Randy Neish 13M M0013 Glastonbury CT 14:02 5:38 1/30 798
4 Alec Corazzini 17M M1418 Middlefield CT 14:37 5:52 1/8 757
5 David Radcliffe 43M M4049 Meriden CT 15:08 6:04 1/13 717
6 Ryan Gossart 14M M1418 Durham CT 16:07 6:28 2/8 664
7 Michael Salley 9M M0013 Durham CT 16:11 6:30 2/30 707
8 Timothy Beach 50M M5054 Prospect CT 16:15 6:31 1/7 746
9 Bryon Thayer 41M M4049 Durham CT 16:20 6:33 2/13 740
10 Matthew Siegel 23M M1929 Meriden CT 16:29 6:37 2/4 678
11 Conner Thrall 15M M1418 Durham CT 16:31 6:38 3/8 758
12 Debra Houle 49F F4049 Durham CT 16:48 6:44 1/24 738
13 Michael Mashane 15M M1418 Durham CT 16:53 6:46 4/8 783
14 Tyler Crisp 14M M1418 Durham CT 16:57 6:48 5/8 938
15 Garrett D'Amato 14M M1418 Middlefield CT 16:57 6:48 6/8 688
16 Baily Thayer 14F F1418 Durham CT 17:14 6:55 1/4 739
17 Riley Carey 10M M0013 Durham CT 17:20 6:57 3/30 788
18 Samantha Drop 12F F0013 Durham CT 17:25 6:59 1/26 699
19 Sam Temple 12M M0013 Durham CT 17:43 7:06 4/30 754
20 Julia Tassmer 32F F3039 Durham CT 17:53 7:10 1/17 767
21 Mathew Colehouse 26M M1929 Alexandria VA 17:55 7:11 3/4 948
22 Jason Salley 8M M0013 Durham CT 17:56 7:12 5/30 706
23 Mark Salley 38M M3039 Durham CT 17:59 7:13 2/15 708
24 Joshua Fazzino 10M M0013 Durham CT 18:19 7:21 6/30 785
25 Parker Tregoning 13M M0013 Durham CT 18:24 7:23 7/30 791
26 Samantha Houle 11F F0013 Durham CT 18:24 7:23 2/26 737
27 Maggie Fitzgerald 16F F1418 Madison CT 18:34 7:27 2/4 776
28 Adam Copeland 9M M0013 Middlefield CT 18:39 7:29 8/30 733
29 Aua Kowal 8F F0013 Durham CT 18:40 7:29 3/26 953
30 Anthony Curry 11M M0013 Durham CT 18:58 7:36 9/30 942
31 Max Temple 9M M0013 Durham CT 19:01 7:38 10/30 756
32 Lea Crown 34F F3039 Meriden CT 19:11 7:42 2/17 651
33 Emilie Frank 24F F1929 Durham CT 19:19 7:45 1/7 761
34 Kenneth Kowal 39M M3039 Durham CT 19:20 7:45 3/15 958
35 Peter Schulten 9M M0013 Middlefield CT 19:25 7:47 11/30 709
36 Bill Ryan 30M M3039 Middletown CT 19:43 7:55 4/15 719
37 Ryrth Houcling 10M M0013 Middlefield CT 19:44 7:55 12/30 950
38 Aidan Oconnell 10M M0013 Durham CT 19:50 7:57 13/30 748
39 Aldan Lentz 8M M0013 Durham CT 19:54 7:59 14/30 727
40 Kolbe Flood 10M M0013 Woodbridge VA 19:56 8:00 15/30 657
41 Samantha Vigue 12F F0013 Durham CT 19:59 8:01 4/26 744
42 Kevin Vigue 45M M4049 Durham CT 20:00 8:02 3/13 745
43 Bailey Zettergreu 9F F0013 Durham CT 20:02 8:02 5/26 949
44 Tim Tozier 14M M1418 Middletown CT 20:03 8:03 7/8 799
45 Michael Frechette 39M M3039 Oakdale CT 20:03 8:03 5/15 944
46 Ryan Genest 10M M0013 Durham CT 20:04 8:03 16/30 768
47 Joswa Keith 35M M3039 Middletown CT 20:13 8:07 6/15 784
48 James Go 43M M4049 Oakdale CT 20:13 8:07 4/13 777
49 Maegen Colehour 25F F1929 Alexandria VA 20:15 8:08 2/7 947
50 Deborah Proctor 55F F5559 Durham CT 20:17 8:08 1/1 778
51 Shannon Carey 10F F0013 Durham CT 20:29 8:13 6/26 789
52 Jenny Lussier 37F F3039 Durham CT 20:30 8:14 3/17 701
53 Maddie Montz 11F F0013 Durham CT 20:30 8:14 7/26 683
54 MaryJane Montz 40F F4049 Durham CT 20:32 8:14 2/24 682
55 Charlie Bogen 47M M4049 Durham CT 20:36 8:16 5/13 672
56 Steve Anastasio 36M M3039 Haddam CT 20:39 8:17 7/15 752
57 Erikson Wasyl 16M M1418 Durham CT 20:40 8:18 8/8 676
58 Linda Murphy 40F F4049 Meriden CT 20:41 8:18 3/24 797
59 Madison Gerry 11F F0013 Springfield MA 20:43 8:19 8/26 726
60 Chris Harlow 11M M0013 Durham CT 20:46 8:20 17/30 790
61 Tucker Fowler 10M M0013 Durham CT 20:52 8:22 18/30 770
62 Maria Fazzino 39F F3039 Durham CT 20:53 8:23 4/17 786
63 Chauce Perreault 43M M4049 Meriden CT 20:53 8:23 6/13 718
64 edward McCarver 61M M6064 Wallingford CT 20:59 8:25 1/1 753
65 Alyssa Gerry 20F F1929 Charlemont MA 21:01 8:26 3/7 721
66 Tyler Woodward 10M M0013 Durham CT 21:01 8:26 19/30 684
67 Carly Jacobs 10F F0013 Durham CT 21:04 8:27 9/26 735
68 Todd Gerry 50M M5054 Charlemont MA 21:05 8:28 2/7 722
69 Jody Benbow 41F F4049 Durham CT 21:06 8:28 4/24 687
70 Rowan Oconnell 11F F0013 Durham CT 21:07 8:28 10/26 749
71 Brendan OConnell 42M M4049 Durham CT 21:08 8:29 7/13 747
72 Logan Gerry 9M M0013 Springfield MA 21:09 8:29 20/30 725
73 Tim Gerry 37M M3039 Springfield MA 21:09 8:29 8/15 724
74 Mitch bradley 52M M5054 Durham CT 21:24 8:35 3/7 946
75 Bob Figoras 51M M5054 Durham CT 21:25 8:36 4/7 760
76 Eric Collins 37F F3039 New Britain CT 21:28 8:37 5/17 769
77 Susan Cassidy 47F F4049 Durham CT 21:28 8:37 5/24 787
78 Paige Copeland 11F F0013 Middle Field CT 21:29 8:37 11/26 734
79 Ivy Linden-Dionne 11F F0013 Durham CT 21:46 8:44 12/26 703
80 Tyler Gerry 34M M3039 Durham CT 21:51 8:46 9/15 660
81 Ryan Gerry 7M M0013 Durham CT 21:52 8:46 21/30 661
82 Brenda Zambrello 34F F3039 Berlin CT 21:53 8:47 6/17 952
83 Matthew McCormack 40M M4049 Mystic CT 21:58 8:49 8/13 667
84 Jessica Hall 24F F1929 Durham CT 22:01 8:50 4/7 671
85 Ethan Bates 10M M0013 Durham CT 22:02 8:51 22/30 691
86 Ryan Catapan 12M M0013 Massapequa NY 22:02 8:51 23/30 956
87 Lon Jassmer 40M M4049 Durham CT 22:08 8:53 9/13 766
88 Julie Linden 41F F4049 Durham CT 22:14 8:55 6/24 702
89 Kevin Zettergrer 39M M3039 Durham CT 22:19 8:57 10/15 951
90 Nicole Bruzik 12F F0013 Rocky Hill CT 22:28 9:01 13/26 696
91 Fiona Bruzik 8F F0013 Rocky Hill CT 22:28 9:01 14/26 695
92 Martha Temple 47F F4049 Durham CT 22:32 9:02 7/24 755
93 Kenny Hall 50M M5054 Durham CT 22:48 9:09 5/7 939
94 Nora Benanti 30F F3039 New Britain CT 22:50 9:10 7/17 782
95 Sarah Bugai 18F F1418 Durham CT 23:15 9:20 3/4 686
96 Andrew Fitzgerald 13M M0013 CT 23:17 9:20 24/30 775
97 Scott THompson 10M M0013 Ellcot City MD 23:18 9:21 25/30 771
98 Kate Schulten 11F F0013 Middlefield CT 23:24 9:23 15/26 711
99 Jennifer Schulten 40F F4049 Middlefield CT 23:25 9:24 8/24 710
100 Lisa Biesak 50F F5054 Durham CT 23:37 9:28 1/1 765
101 Kori Milards 38F F3039 Rockfall CA 23:37 9:28 8/17 743
102 Joanne Giardina 45F F4049 Middlefield CT 23:39 9:29 9/24 742
103 Harold Hall 51M M5054 Durham CT 23:40 9:30 6/7 665
104 Craig Bradanini 38M M3039 Durham CT 23:43 9:31 11/15 943
105 Sam Kahnke 28M M1929 Middletown CT 23:44 9:31 4/4 674
106 Sandra Gumz 39F F3039 Northboro CT 23:46 9:32 9/17 796
107 Frederick Raudat 45M M4049 Killingworth CT 23:49 9:33 10/13 945
108 Alex Werbu 47M M4049 Chechire CT 23:52 9:34 11/13 941
109 Bruce Schmottlach 74M M70++ Durham CT 23:53 9:35 1/1 681
110 Sharon Hall 48F F4049 Durham CT 23:55 9:36 10/24 666
111 Alison Durand 10F F0013 Durham CT 24:02 9:38 16/26 751
112 Mike Durand 41M M4049 Durham CT 24:02 9:38 12/13 750
113 Seamuo Doyle 11M M0013 Durham CT 24:18 9:45 26/30 731
114 Gregory Lenoce 8M M0013 Middletown CT 24:27 9:48 27/30 654
115 Richard Lenoce 52M M5054 Middletown CT 24:27 9:48 7/7 655
116 Anne Doyle 47F F4049 Durham CT 24:40 9:54 11/24 730
117 Kimberly Ryan 30F F3039 Middletown CT 24:47 9:57 10/17 720
118 Patrice Kirshbaum 0F F0000 Wallingford CT 25:05 10:04 1/1 656
119 Alexandra Anthony 26F F1929 Hartford CT 25:13 10:07 5/7 741
120 Catherine Brennan 14F F1418 Durham CT 25:20 10:10 4/4 658
121 Sonja Gerry 20F F1929 Charlemont MA 25:23 10:11 6/7 723
122 Brenda Yankowsk 34F F3039 Cornwell CT 25:28 10:13 11/17 800
123 Ashley Woodward 8F F0013 Durham CT 25:33 10:15 17/26 685
124 Meredith Lentz 6F F0013 Durham CT 25:33 10:15 18/26 728
125 Kathleen Corona 42F F4049 Durham CT 25:35 10:16 12/24 712
126 Tina Hurlbert 35F F3039 Durham CT 26:00 10:26 12/17 729
127 Bryan Smith 35M M3039 Ballston Lake NY 26:16 10:32 12/15 694
128 Ricki Barton 10F F0013 Durham CT 26:24 10:36 19/26 713
129 Lisa Jacobs 40F F4049 Durham CT 26:32 10:39 13/24 736
130 Bridget Thompson 8F F0013 Ellcott City MD 26:48 10:45 20/26 772
131 Fitzgerald William 8M M0013 CT 26:48 10:45 28/30 774
132 Anne Drop 46F F4049 Durham CT 26:58 10:49 14/24 698
133 Sandi Pilla 44F F4049 Middlefield CT 27:05 10:52 15/24 764
134 Kimberly Neville 41F F4049 Durham CT 27:06 10:53 16/24 940
135 Melissa Wooten 31F F3039 Griswold CT 27:15 10:56 13/17 677
136 Cathleen Hinsch 47F F4049 Middlefield CT 27:28 11:02 17/24 700
137 Maddie Climie 7F F0013 Durham CT 27:49 11:10 21/26 779
138 Pete Climie 36M M3039 Durham CT 27:49 11:10 13/15 780
139 Tyler Erickson 35M M3039 Colorada Springs CO 27:49 11:10 14/15 781
140 JoAnn Bugai 46F F4049 Rockfall CT 28:08 11:18 18/24 762
141 Tracey Wheeler 45F F4049 Middlefield CT 28:08 11:18 19/24 763
142 Anita Wooten 45F F4049 Riverhead NY 28:24 11:24 20/24 673
143 Hailee Corona 10F F0013 Durham CT 28:25 11:24 22/26 714
144 Tyler Catapouno 10M M0013 Massapequa NY 28:28 11:26 29/30 954
145 Amy Lenoce 35F F3039 Middletown CT 28:36 11:29 14/17 652
146 Isabella Lenoce 6F F0013 Middletown CT 28:37 11:29 23/26 653
147 Ginny Berbow 11F F0013 Durham CT 29:40 11:55 24/26 732
148 Mark Albin 42M M4049 Durham CT 29:42 11:55 13/13 692
149 Zachary Albin 9M M0013 Durham CT 29:42 11:55 30/30 689
150 Stephan Lambert 37M M3039 Willimantic CT 29:51 11:59 15/15 705
151 Alyssa Woodward 7F F0013 durham CT 30:04 12:04 25/26 795
152 Siobhan Bruzik 44F F4049 Rocky Hill CT 30:09 12:06 21/24 697
153 Becky Finnerty 38F F3039 Durham CT 30:25 12:12 15/17 794
154 Tracy Lambert 37F F3039 Willimantic CT 32:24 13:00 16/17 704
155 Fitzgerald Jean 44F F4049 Madison CT 32:25 13:01 22/24 773
156 Barb Carr 38F F3039 Huntington CT 32:28 13:02 17/17 793
157 Melissa Albin 40F F4049 Durham CT 33:12 13:20 23/24 693
158 kelly Catapano 45F F4049 Massapequa NY 33:12 13:20 24/24 955
159 Olivia Bates 7F F0013 Durham CT 33:12 13:20 26/26 690
160 Emily Nelson 29F F1929 Middletown CT 36:47 14:46 7/7 675


Top Male: 1. Wes Melnik 2. Jeffrey Townsend 3. Randy Neish 4. Alec Corazzini 5. David Radcliffe

Top Female: 1. Debra Houle 2. Baily Thayer 3. Samantha Drop 4. Julia Tassmer 5. Samantha Houle

Online Registration = 
Online Entry


Results = 
Results


Timing by Plattsys
 = Timing by Plattsys




Contact us for Advertising Rates